sensor_id;sensor_type;location;lat;lon;timestamp;P1;durP1;ratioP1;P2;durP2;ratioP2
32407;SDS011;18869;55.970;37.502;2023-08-01T00:01:10;11.10;;;8.20;;
32407;SDS011;18869;55.970;37.502;2023-08-01T00:03:38;14.20;;;8.53;;
32407;SDS011;18869;55.970;37.502;2023-08-01T00:06:05;10.37;;;8.27;;
32407;SDS011;18869;55.970;37.502;2023-08-01T00:08:33;10.87;;;7.60;;
32407;SDS011;18869;55.970;37.502;2023-08-01T00:11:00;9.23;;;7.23;;
32407;SDS011;18869;55.970;37.502;2023-08-01T00:13:28;11.50;;;8.50;;
32407;SDS011;18869;55.970;37.502;2023-08-01T00:15:55;11.33;;;8.17;;
32407;SDS011;18869;55.970;37.502;2023-08-01T00:18:23;11.30;;;8.00;;
32407;SDS011;18869;55.970;37.502;2023-08-01T00:20:51;10.30;;;7.63;;
32407;SDS011;18869;55.970;37.502;2023-08-01T00:23:18;12.87;;;7.57;;
32407;SDS011;18869;55.970;37.502;2023-08-01T00:25:46;10.90;;;7.50;;
32407;SDS011;18869;55.970;37.502;2023-08-01T00:28:17;10.23;;;9.10;;
32407;SDS011;18869;55.970;37.502;2023-08-01T00:30:47;12.87;;;7.80;;
32407;SDS011;18869;55.970;37.502;2023-08-01T00:33:16;8.83;;;7.30;;
32407;SDS011;18869;55.970;37.502;2023-08-01T00:35:43;14.80;;;8.50;;
32407;SDS011;18869;55.970;37.502;2023-08-01T00:38:13;11.67;;;7.87;;
32407;SDS011;18869;55.970;37.502;2023-08-01T00:40:40;12.03;;;8.33;;
32407;SDS011;18869;55.970;37.502;2023-08-01T00:43:07;10.43;;;8.07;;
32407;SDS011;18869;55.970;37.502;2023-08-01T00:45:38;18.30;;;8.60;;
32407;SDS011;18869;55.970;37.502;2023-08-01T00:48:06;11.63;;;9.20;;
32407;SDS011;18869;55.970;37.502;2023-08-01T00:50:38;9.80;;;7.50;;
32407;SDS011;18869;55.970;37.502;2023-08-01T00:53:06;10.27;;;7.87;;
32407;SDS011;18869;55.970;37.502;2023-08-01T00:55:33;16.00;;;8.53;;
32407;SDS011;18869;55.970;37.502;2023-08-01T00:58:00;10.53;;;7.60;;
32407;SDS011;18869;55.970;37.502;2023-08-01T01:00:28;12.17;;;8.93;;
32407;SDS011;18869;55.970;37.502;2023-08-01T01:02:55;10.73;;;7.87;;
32407;SDS011;18869;55.970;37.502;2023-08-01T01:05:23;10.87;;;8.03;;
32407;SDS011;18869;55.970;37.502;2023-08-01T01:07:52;10.40;;;8.40;;
32407;SDS011;18869;55.970;37.502;2023-08-01T01:10:19;12.07;;;7.40;;
32407;SDS011;18869;55.970;37.502;2023-08-01T01:12:48;13.13;;;7.87;;
32407;SDS011;18869;55.970;37.502;2023-08-01T01:15:16;13.13;;;8.33;;
32407;SDS011;18869;55.970;37.502;2023-08-01T01:17:43;12.17;;;7.63;;
32407;SDS011;18869;55.970;37.502;2023-08-01T01:20:10;9.33;;;7.50;;
32407;SDS011;18869;55.970;37.502;2023-08-01T01:22:38;15.50;;;7.93;;
32407;SDS011;18869;55.970;37.502;2023-08-01T01:25:07;11.10;;;8.23;;
32407;SDS011;18869;55.970;37.502;2023-08-01T01:27:35;13.43;;;7.90;;
32407;SDS011;18869;55.970;37.502;2023-08-01T01:30:06;9.87;;;7.80;;
32407;SDS011;18869;55.970;37.502;2023-08-01T01:32:37;12.80;;;8.70;;
32407;SDS011;18869;55.970;37.502;2023-08-01T01:35:06;9.40;;;7.87;;
32407;SDS011;18869;55.970;37.502;2023-08-01T01:37:33;9.30;;;8.17;;
32407;SDS011;18869;55.970;37.502;2023-08-01T01:40:01;9.03;;;7.83;;
32407;SDS011;18869;55.970;37.502;2023-08-01T01:42:29;11.47;;;8.23;;
32407;SDS011;18869;55.970;37.502;2023-08-01T01:44:56;10.60;;;7.63;;
32407;SDS011;18869;55.970;37.502;2023-08-01T01:47:23;14.93;;;8.20;;
32407;SDS011;18869;55.970;37.502;2023-08-01T01:49:51;10.17;;;8.43;;
32407;SDS011;18869;55.970;37.502;2023-08-01T01:52:17;8.57;;;7.67;;
32407;SDS011;18869;55.970;37.502;2023-08-01T01:54:44;9.30;;;7.07;;
32407;SDS011;18869;55.970;37.502;2023-08-01T01:57:12;8.90;;;7.37;;
32407;SDS011;18869;55.970;37.502;2023-08-01T01:59:40;10.70;;;8.63;;
32407;SDS011;18869;55.970;37.502;2023-08-01T02:02:06;10.97;;;8.17;;
32407;SDS011;18869;55.970;37.502;2023-08-01T02:04:34;13.33;;;9.13;;
32407;SDS011;18869;55.970;37.502;2023-08-01T02:07:03;10.57;;;8.80;;
32407;SDS011;18869;55.970;37.502;2023-08-01T02:09:31;11.93;;;7.97;;
32407;SDS011;18869;55.970;37.502;2023-08-01T02:11:58;12.43;;;7.83;;
32407;SDS011;18869;55.970;37.502;2023-08-01T02:14:26;12.73;;;7.80;;
32407;SDS011;18869;55.970;37.502;2023-08-01T02:16:53;9.50;;;8.27;;
32407;SDS011;18869;55.970;37.502;2023-08-01T02:19:21;12.03;;;8.10;;
32407;SDS011;18869;55.970;37.502;2023-08-01T02:21:49;11.93;;;8.50;;
32407;SDS011;18869;55.970;37.502;2023-08-01T02:24:16;10.70;;;7.90;;
32407;SDS011;18869;55.970;37.502;2023-08-01T02:26:44;14.97;;;8.60;;
32407;SDS011;18869;55.970;37.502;2023-08-01T02:29:26;9.93;;;8.20;;
32407;SDS011;18869;55.970;37.502;2023-08-01T02:32:01;10.90;;;7.27;;
32407;SDS011;18869;55.970;37.502;2023-08-01T02:34:29;11.80;;;8.60;;
32407;SDS011;18869;55.970;37.502;2023-08-01T02:36:55;11.03;;;8.27;;
32407;SDS011;18869;55.970;37.502;2023-08-01T02:39:23;11.37;;;9.70;;
32407;SDS011;18869;55.970;37.502;2023-08-01T02:41:50;9.70;;;8.50;;
32407;SDS011;18869;55.970;37.502;2023-08-01T02:44:17;17.20;;;10.03;;
32407;SDS011;18869;55.970;37.502;2023-08-01T02:46:45;13.20;;;8.97;;
32407;SDS011;18869;55.970;37.502;2023-08-01T02:49:14;15.87;;;9.80;;
32407;SDS011;18869;55.970;37.502;2023-08-01T02:51:41;15.13;;;9.93;;
32407;SDS011;18869;55.970;37.502;2023-08-01T02:54:08;10.13;;;9.10;;
32407;SDS011;18869;55.970;37.502;2023-08-01T02:56:35;13.23;;;10.33;;
32407;SDS011;18869;55.970;37.502;2023-08-01T02:59:06;11.97;;;9.00;;
32407;SDS011;18869;55.970;37.502;2023-08-01T03:01:34;13.07;;;8.83;;
32407;SDS011;18869;55.970;37.502;2023-08-01T03:04:02;14.77;;;10.53;;
32407;SDS011;18869;55.970;37.502;2023-08-01T03:06:29;13.20;;;8.50;;
32407;SDS011;18869;55.970;37.502;2023-08-01T03:08:57;12.27;;;8.97;;
32407;SDS011;18869;55.970;37.502;2023-08-01T03:11:24;13.57;;;9.23;;
32407;SDS011;18869;55.970;37.502;2023-08-01T03:13:51;14.90;;;8.83;;
32407;SDS011;18869;55.970;37.502;2023-08-01T03:16:18;22.60;;;9.63;;
32407;SDS011;18869;55.970;37.502;2023-08-01T03:18:46;11.20;;;8.57;;
32407;SDS011;18869;55.970;37.502;2023-08-01T03:21:13;13.57;;;8.53;;
32407;SDS011;18869;55.970;37.502;2023-08-01T03:23:41;14.27;;;8.57;;
32407;SDS011;18869;55.970;37.502;2023-08-01T03:26:08;14.53;;;8.77;;
32407;SDS011;18869;55.970;37.502;2023-08-01T03:28:35;13.33;;;9.57;;
32407;SDS011;18869;55.970;37.502;2023-08-01T03:31:05;15.33;;;9.37;;
32407;SDS011;18869;55.970;37.502;2023-08-01T03:33:37;12.50;;;9.23;;
32407;SDS011;18869;55.970;37.502;2023-08-01T03:36:04;20.27;;;10.93;;
32407;SDS011;18869;55.970;37.502;2023-08-01T03:38:34;12.97;;;9.80;;
32407;SDS011;18869;55.970;37.502;2023-08-01T03:41:02;13.77;;;9.33;;
32407;SDS011;18869;55.970;37.502;2023-08-01T03:43:30;13.80;;;8.53;;
32407;SDS011;18869;55.970;37.502;2023-08-01T03:45:57;11.67;;;8.47;;
32407;SDS011;18869;55.970;37.502;2023-08-01T03:48:27;16.57;;;9.00;;
32407;SDS011;18869;55.970;37.502;2023-08-01T03:50:58;13.23;;;8.40;;
32407;SDS011;18869;55.970;37.502;2023-08-01T03:53:26;11.70;;;9.87;;
32407;SDS011;18869;55.970;37.502;2023-08-01T03:55:56;13.77;;;8.13;;
32407;SDS011;18869;55.970;37.502;2023-08-01T03:58:28;10.77;;;8.20;;
32407;SDS011;18869;55.970;37.502;2023-08-01T04:00:55;13.67;;;8.57;;
32407;SDS011;18869;55.970;37.502;2023-08-01T04:03:23;13.03;;;8.77;;
32407;SDS011;18869;55.970;37.502;2023-08-01T04:05:50;13.00;;;8.67;;
32407;SDS011;18869;55.970;37.502;2023-08-01T04:08:17;9.53;;;7.93;;
32407;SDS011;18869;55.970;37.502;2023-08-01T04:10:46;10.90;;;8.07;;
32407;SDS011;18869;55.970;37.502;2023-08-01T04:13:13;10.20;;;7.90;;
32407;SDS011;18869;55.970;37.502;2023-08-01T04:15:40;8.70;;;6.80;;
32407;SDS011;18869;55.970;37.502;2023-08-01T04:18:08;9.23;;;7.73;;
32407;SDS011;18869;55.970;37.502;2023-08-01T04:20:35;10.67;;;7.20;;
32407;SDS011;18869;55.970;37.502;2023-08-01T04:23:02;18.00;;;7.73;;
32407;SDS011;18869;55.970;37.502;2023-08-01T04:25:29;11.53;;;7.13;;
32407;SDS011;18869;55.970;37.502;2023-08-01T04:27:56;10.80;;;8.30;;
32407;SDS011;18869;55.970;37.502;2023-08-01T04:30:24;13.60;;;8.03;;
32407;SDS011;18869;55.970;37.502;2023-08-01T04:32:51;10.33;;;7.37;;
32407;SDS011;18869;55.970;37.502;2023-08-01T04:35:18;8.00;;;7.20;;
32407;SDS011;18869;55.970;37.502;2023-08-01T04:37:46;8.97;;;7.13;;
32407;SDS011;18869;55.970;37.502;2023-08-01T04:40:14;17.10;;;7.83;;
32407;SDS011;18869;55.970;37.502;2023-08-01T04:42:41;11.47;;;7.47;;
32407;SDS011;18869;55.970;37.502;2023-08-01T04:45:08;14.37;;;7.37;;
32407;SDS011;18869;55.970;37.502;2023-08-01T04:47:36;8.63;;;6.07;;
32407;SDS011;18869;55.970;37.502;2023-08-01T04:50:05;10.47;;;7.47;;
32407;SDS011;18869;55.970;37.502;2023-08-01T04:52:33;13.20;;;7.10;;
32407;SDS011;18869;55.970;37.502;2023-08-01T04:55:00;10.30;;;6.30;;
32407;SDS011;18869;55.970;37.502;2023-08-01T04:57:30;9.63;;;6.67;;
32407;SDS011;18869;55.970;37.502;2023-08-01T04:59:56;9.33;;;6.10;;
32407;SDS011;18869;55.970;37.502;2023-08-01T05:02:26;10.27;;;6.20;;
32407;SDS011;18869;55.970;37.502;2023-08-01T05:04:53;6.60;;;5.90;;
32407;SDS011;18869;55.970;37.502;2023-08-01T05:07:20;7.93;;;5.97;;
32407;SDS011;18869;55.970;37.502;2023-08-01T05:09:48;11.77;;;6.80;;
32407;SDS011;18869;55.970;37.502;2023-08-01T05:12:15;11.17;;;6.03;;
32407;SDS011;18869;55.970;37.502;2023-08-01T05:14:42;8.43;;;6.40;;
32407;SDS011;18869;55.970;37.502;2023-08-01T05:17:09;7.53;;;5.70;;
32407;SDS011;18869;55.970;37.502;2023-08-01T05:19:36;7.67;;;5.13;;
32407;SDS011;18869;55.970;37.502;2023-08-01T05:22:05;9.97;;;6.10;;
32407;SDS011;18869;55.970;37.502;2023-08-01T05:24:33;9.60;;;5.80;;
32407;SDS011;18869;55.970;37.502;2023-08-01T05:27:00;12.07;;;5.93;;
32407;SDS011;18869;55.970;37.502;2023-08-01T05:29:27;7.80;;;5.43;;
32407;SDS011;18869;55.970;37.502;2023-08-01T05:31:55;5.13;;;4.20;;
32407;SDS011;18869;55.970;37.502;2023-08-01T05:34:22;6.70;;;3.87;;
32407;SDS011;18869;55.970;37.502;2023-08-01T05:36:49;8.03;;;4.00;;
32407;SDS011;18869;55.970;37.502;2023-08-01T05:39:17;11.03;;;4.47;;
32407;SDS011;18869;55.970;37.502;2023-08-01T05:41:46;7.20;;;4.50;;
32407;SDS011;18869;55.970;37.502;2023-08-01T05:44:13;5.90;;;4.40;;
32407;SDS011;18869;55.970;37.502;2023-08-01T05:46:44;6.63;;;4.27;;
32407;SDS011;18869;55.970;37.502;2023-08-01T05:49:11;11.50;;;4.23;;
32407;SDS011;18869;55.970;37.502;2023-08-01T05:51:38;6.53;;;4.00;;
32407;SDS011;18869;55.970;37.502;2023-08-01T05:54:07;8.57;;;4.00;;
32407;SDS011;18869;55.970;37.502;2023-08-01T05:57:00;4.50;;;3.45;;
32407;SDS011;18869;55.970;37.502;2023-08-01T05:59:27;4.87;;;3.45;;
32407;SDS011;18869;55.970;37.502;2023-08-01T06:01:57;3.20;;;2.90;;
32407;SDS011;18869;55.970;37.502;2023-08-01T06:04:24;3.92;;;3.00;;
32407;SDS011;18869;55.970;37.502;2023-08-01T06:06:57;3.28;;;2.30;;
32407;SDS011;18869;55.970;37.502;2023-08-01T06:09:25;2.97;;;2.65;;
32407;SDS011;18869;55.970;37.502;2023-08-01T06:11:56;3.58;;;2.33;;
32407;SDS011;18869;55.970;37.502;2023-08-01T06:14:23;3.12;;;2.45;;
32407;SDS011;18869;55.970;37.502;2023-08-01T06:16:54;5.50;;;2.72;;
32407;SDS011;18869;55.970;37.502;2023-08-01T06:19:21;3.15;;;2.53;;
32407;SDS011;18869;55.970;37.502;2023-08-01T06:21:48;8.60;;;2.78;;
32407;SDS011;18869;55.970;37.502;2023-08-01T06:24:15;3.42;;;2.25;;
32407;SDS011;18869;55.970;37.502;2023-08-01T06:26:47;4.15;;;2.10;;
32407;SDS011;18869;55.970;37.502;2023-08-01T06:29:14;4.05;;;2.17;;
32407;SDS011;18869;55.970;37.502;2023-08-01T06:31:55;3.92;;;2.30;;
32407;SDS011;18869;55.970;37.502;2023-08-01T06:34:26;3.37;;;2.08;;
32407;SDS011;18869;55.970;37.502;2023-08-01T06:37:01;4.65;;;2.85;;
32407;SDS011;18869;55.970;37.502;2023-08-01T06:39:29;3.28;;;2.33;;
32407;SDS011;18869;55.970;37.502;2023-08-01T06:41:56;3.97;;;2.53;;
32407;SDS011;18869;55.970;37.502;2023-08-01T06:44:23;2.87;;;2.55;;
32407;SDS011;18869;55.970;37.502;2023-08-01T06:46:51;2.92;;;2.37;;
32407;SDS011;18869;55.970;37.502;2023-08-01T06:49:18;3.65;;;2.20;;
32407;SDS011;18869;55.970;37.502;2023-08-01T06:51:46;3.03;;;2.10;;
32407;SDS011;18869;55.970;37.502;2023-08-01T06:54:14;3.00;;;2.58;;
32407;SDS011;18869;55.970;37.502;2023-08-01T06:56:41;3.37;;;2.83;;
32407;SDS011;18869;55.970;37.502;2023-08-01T06:59:13;3.03;;;2.53;;
32407;SDS011;18869;55.970;37.502;2023-08-01T07:01:40;9.77;;;2.78;;
32407;SDS011;18869;55.970;37.502;2023-08-01T07:04:10;3.65;;;2.20;;
32407;SDS011;18869;55.970;37.502;2023-08-01T07:06:41;3.20;;;2.00;;
32407;SDS011;18869;55.970;37.502;2023-08-01T07:09:08;4.22;;;2.83;;
32407;SDS011;18869;55.970;37.502;2023-08-01T07:11:38;5.32;;;2.40;;
32407;SDS011;18869;55.970;37.502;2023-08-01T07:14:10;3.75;;;1.92;;
32407;SDS011;18869;55.970;37.502;2023-08-01T07:16:37;3.78;;;1.80;;
32407;SDS011;18869;55.970;37.502;2023-08-01T07:19:06;2.53;;;1.98;;
32407;SDS011;18869;55.970;37.502;2023-08-01T07:21:35;2.12;;;2.00;;
32407;SDS011;18869;55.970;37.502;2023-08-01T07:24:02;2.10;;;2.00;;
32407;SDS011;18869;55.970;37.502;2023-08-01T07:26:30;4.20;;;2.75;;
32407;SDS011;18869;55.970;37.502;2023-08-01T07:28:57;3.47;;;2.40;;
32407;SDS011;18869;55.970;37.502;2023-08-01T07:31:26;2.75;;;2.22;;
32407;SDS011;18869;55.970;37.502;2023-08-01T07:33:53;2.37;;;2.17;;
32407;SDS011;18869;55.970;37.502;2023-08-01T07:36:20;2.45;;;2.22;;
32407;SDS011;18869;55.970;37.502;2023-08-01T07:38:48;4.50;;;2.78;;
32407;SDS011;18869;55.970;37.502;2023-08-01T07:41:17;5.95;;;2.80;;
32407;SDS011;18869;55.970;37.502;2023-08-01T07:43:48;4.75;;;2.20;;
32407;SDS011;18869;55.970;37.502;2023-08-01T07:46:15;2.47;;;2.10;;
32407;SDS011;18869;55.970;37.502;2023-08-01T07:48:50;3.00;;;2.40;;
32407;SDS011;18869;55.970;37.502;2023-08-01T07:51:19;2.83;;;2.25;;
32407;SDS011;18869;55.970;37.502;2023-08-01T07:53:46;2.28;;;2.10;;
32407;SDS011;18869;55.970;37.502;2023-08-01T07:56:16;2.60;;;2.28;;
32407;SDS011;18869;55.970;37.502;2023-08-01T07:58:47;2.62;;;2.00;;
32407;SDS011;18869;55.970;37.502;2023-08-01T08:01:15;4.43;;;2.45;;
32407;SDS011;18869;55.970;37.502;2023-08-01T08:03:46;2.62;;;2.17;;
32407;SDS011;18869;55.970;37.502;2023-08-01T08:06:19;5.90;;;2.40;;
32407;SDS011;18869;55.970;37.502;2023-08-01T08:08:47;3.03;;;2.67;;
32407;SDS011;18869;55.970;37.502;2023-08-01T08:11:14;4.15;;;2.40;;
32407;SDS011;18869;55.970;37.502;2023-08-01T08:13:42;4.35;;;2.70;;
32407;SDS011;18869;55.970;37.502;2023-08-01T08:16:10;4.12;;;2.40;;
32407;SDS011;18869;55.970;37.502;2023-08-01T08:18:37;7.55;;;2.35;;
32407;SDS011;18869;55.970;37.502;2023-08-01T08:21:06;3.15;;;2.30;;
32407;SDS011;18869;55.970;37.502;2023-08-01T08:23:33;2.95;;;2.55;;
32407;SDS011;18869;55.970;37.502;2023-08-01T08:26:00;2.92;;;2.22;;
32407;SDS011;18869;55.970;37.502;2023-08-01T08:28:27;3.10;;;2.65;;
32407;SDS011;18869;55.970;37.502;2023-08-01T08:30:59;4.43;;;2.72;;
32407;SDS011;18869;55.970;37.502;2023-08-01T08:33:29;2.62;;;2.42;;
32407;SDS011;18869;55.970;37.502;2023-08-01T08:35:57;4.03;;;2.65;;
32407;SDS011;18869;55.970;37.502;2023-08-01T08:38:26;2.80;;;2.60;;
32407;SDS011;18869;55.970;37.502;2023-08-01T08:41:00;3.05;;;2.65;;
32407;SDS011;18869;55.970;37.502;2023-08-01T08:43:32;3.60;;;2.37;;
32407;SDS011;18869;55.970;37.502;2023-08-01T08:46:01;2.10;;;2.00;;
32407;SDS011;18869;55.970;37.502;2023-08-01T08:48:29;2.20;;;2.00;;
32407;SDS011;18869;55.970;37.502;2023-08-01T08:50:57;2.33;;;2.00;;
32407;SDS011;18869;55.970;37.502;2023-08-01T08:53:25;2.30;;;2.10;;
32407;SDS011;18869;55.970;37.502;2023-08-01T08:55:52;1.90;;;1.80;;
32407;SDS011;18869;55.970;37.502;2023-08-01T08:58:20;1.77;;;1.67;;
32407;SDS011;18869;55.970;37.502;2023-08-01T09:00:47;3.05;;;2.00;;
32407;SDS011;18869;55.970;37.502;2023-08-01T09:03:15;1.67;;;1.58;;
32407;SDS011;18869;55.970;37.502;2023-08-01T09:05:44;2.10;;;1.90;;
32407;SDS011;18869;55.970;37.502;2023-08-01T09:08:15;2.95;;;2.10;;
32407;SDS011;18869;55.970;37.502;2023-08-01T09:10:44;3.05;;;1.73;;
32407;SDS011;18869;55.970;37.502;2023-08-01T09:13:11;1.70;;;1.60;;
32407;SDS011;18869;55.970;37.502;2023-08-01T09:15:39;2.10;;;1.90;;
32407;SDS011;18869;55.970;37.502;2023-08-01T09:18:08;2.35;;;2.15;;
32407;SDS011;18869;55.970;37.502;2023-08-01T09:20:40;2.37;;;2.17;;
32407;SDS011;18869;55.970;37.502;2023-08-01T09:23:09;2.12;;;2.03;;
32407;SDS011;18869;55.970;37.502;2023-08-01T09:25:37;5.70;;;2.10;;
32407;SDS011;18869;55.970;37.502;2023-08-01T09:28:14;2.20;;;2.10;;
32407;SDS011;18869;55.970;37.502;2023-08-01T09:30:45;2.30;;;1.95;;
32407;SDS011;18869;55.970;37.502;2023-08-01T09:33:13;2.10;;;1.90;;
32407;SDS011;18869;55.970;37.502;2023-08-01T09:35:40;2.67;;;2.08;;
32407;SDS011;18869;55.970;37.502;2023-08-01T09:38:10;2.55;;;2.05;;
32407;SDS011;18869;55.970;37.502;2023-08-01T09:40:38;2.95;;;2.15;;
32407;SDS011;18869;55.970;37.502;2023-08-01T09:43:05;2.08;;;1.90;;
32407;SDS011;18869;55.970;37.502;2023-08-01T09:45:33;2.12;;;1.95;;
32407;SDS011;18869;55.970;37.502;2023-08-01T09:48:01;2.47;;;2.28;;
32407;SDS011;18869;55.970;37.502;2023-08-01T09:50:28;3.70;;;1.83;;
32407;SDS011;18869;55.970;37.502;2023-08-01T09:53:06;3.05;;;2.22;;
32407;SDS011;18869;55.970;37.502;2023-08-01T09:55:34;2.12;;;1.92;;
32407;SDS011;18869;55.970;37.502;2023-08-01T09:58:01;4.00;;;2.45;;
32407;SDS011;18869;55.970;37.502;2023-08-01T10:00:29;3.58;;;1.90;;
32407;SDS011;18869;55.970;37.502;2023-08-01T10:02:57;1.70;;;1.60;;
32407;SDS011;18869;55.970;37.502;2023-08-01T10:05:28;2.50;;;1.90;;
32407;SDS011;18869;55.970;37.502;2023-08-01T10:08:00;3.25;;;2.35;;
32407;SDS011;18869;55.970;37.502;2023-08-01T10:10:29;2.92;;;2.60;;
32407;SDS011;18869;55.970;37.502;2023-08-01T10:12:57;4.18;;;2.10;;
32407;SDS011;18869;55.970;37.502;2023-08-01T10:15:24;2.35;;;2.05;;
32407;SDS011;18869;55.970;37.502;2023-08-01T10:17:52;5.07;;;2.42;;
32407;SDS011;18869;55.970;37.502;2023-08-01T10:20:20;3.67;;;2.37;;
32407;SDS011;18869;55.970;37.502;2023-08-01T10:22:48;3.45;;;2.20;;
32407;SDS011;18869;55.970;37.502;2023-08-01T10:25:17;3.08;;;2.47;;
32407;SDS011;18869;55.970;37.502;2023-08-01T10:27:57;2.37;;;2.17;;
32407;SDS011;18869;55.970;37.502;2023-08-01T10:30:25;4.47;;;2.67;;
32407;SDS011;18869;55.970;37.502;2023-08-01T10:32:54;2.97;;;2.42;;
32407;SDS011;18869;55.970;37.502;2023-08-01T10:35:31;5.68;;;2.78;;
32407;SDS011;18869;55.970;37.502;2023-08-01T10:38:03;5.15;;;2.80;;
32407;SDS011;18869;55.970;37.502;2023-08-01T10:40:40;5.00;;;2.70;;
32407;SDS011;18869;55.970;37.502;2023-08-01T10:43:19;5.00;;;2.62;;
32407;SDS011;18869;55.970;37.502;2023-08-01T10:45:59;4.75;;;2.95;;
32407;SDS011;18869;55.970;37.502;2023-08-01T10:48:28;7.93;;;6.03;;
32407;SDS011;18869;55.970;37.502;2023-08-01T10:50:55;10.13;;;8.25;;
32407;SDS011;18869;55.970;37.502;2023-08-01T10:53:23;13.27;;;11.32;;
32407;SDS011;18869;55.970;37.502;2023-08-01T10:55:52;9.05;;;5.57;;
32407;SDS011;18869;55.970;37.502;2023-08-01T10:58:19;6.53;;;4.40;;
32407;SDS011;18869;55.970;37.502;2023-08-01T11:00:46;7.00;;;2.92;;
32407;SDS011;18869;55.970;37.502;2023-08-01T11:03:34;6.78;;;2.78;;
32407;SDS011;18869;55.970;37.502;2023-08-01T11:06:02;3.37;;;2.75;;
32407;SDS011;18869;55.970;37.502;2023-08-01T11:08:36;7.75;;;2.95;;
32407;SDS011;18869;55.970;37.502;2023-08-01T11:11:06;3.33;;;2.67;;
32407;SDS011;18869;55.970;37.502;2023-08-01T11:13:34;6.62;;;3.05;;
32407;SDS011;18869;55.970;37.502;2023-08-01T11:16:02;7.80;;;3.40;;
32407;SDS011;18869;55.970;37.502;2023-08-01T11:18:30;4.25;;;2.92;;
32407;SDS011;18869;55.970;37.502;2023-08-01T11:21:08;3.87;;;2.90;;
32407;SDS011;18869;55.970;37.502;2023-08-01T11:23:35;5.45;;;2.65;;
32407;SDS011;18869;55.970;37.502;2023-08-01T11:26:07;5.40;;;2.92;;
32407;SDS011;18869;55.970;37.502;2023-08-01T11:28:35;5.82;;;2.90;;
32407;SDS011;18869;55.970;37.502;2023-08-01T11:31:10;5.03;;;3.25;;
32407;SDS011;18869;55.970;37.502;2023-08-01T11:33:38;4.15;;;2.97;;
32407;SDS011;18869;55.970;37.502;2023-08-01T11:36:05;2.72;;;2.53;;
32407;SDS011;18869;55.970;37.502;2023-08-01T11:38:33;10.55;;;3.42;;
32407;SDS011;18869;55.970;37.502;2023-08-01T11:41:04;3.37;;;2.47;;
32407;SDS011;18869;55.970;37.502;2023-08-01T11:43:38;4.62;;;3.12;;
32407;SDS011;18869;55.970;37.502;2023-08-01T11:46:06;3.95;;;3.08;;
32407;SDS011;18869;55.970;37.502;2023-08-01T11:48:35;4.28;;;2.80;;
32407;SDS011;18869;55.970;37.502;2023-08-01T11:51:01;3.37;;;2.83;;
32407;SDS011;18869;55.970;37.502;2023-08-01T11:53:29;5.62;;;3.12;;
32407;SDS011;18869;55.970;37.502;2023-08-01T11:56:04;5.65;;;3.03;;
32407;SDS011;18869;55.970;37.502;2023-08-01T11:58:32;3.70;;;2.70;;
32407;SDS011;18869;55.970;37.502;2023-08-01T12:01:04;3.05;;;2.72;;
32407;SDS011;18869;55.970;37.502;2023-08-01T12:03:41;5.10;;;3.00;;
32407;SDS011;18869;55.970;37.502;2023-08-01T12:06:09;5.78;;;3.40;;
32407;SDS011;18869;55.970;37.502;2023-08-01T12:08:37;4.68;;;2.85;;
32407;SDS011;18869;55.970;37.502;2023-08-01T12:11:05;4.75;;;3.30;;
32407;SDS011;18869;55.970;37.502;2023-08-01T12:13:32;6.07;;;3.12;;
32407;SDS011;18869;55.970;37.502;2023-08-01T12:15:59;3.22;;;2.70;;
32407;SDS011;18869;55.970;37.502;2023-08-01T12:18:28;5.32;;;2.83;;
32407;SDS011;18869;55.970;37.502;2023-08-01T12:20:56;4.07;;;3.10;;
32407;SDS011;18869;55.970;37.502;2023-08-01T12:23:24;4.12;;;3.00;;
32407;SDS011;18869;55.970;37.502;2023-08-01T12:25:51;5.25;;;3.15;;
32407;SDS011;18869;55.970;37.502;2023-08-01T12:28:18;6.32;;;3.20;;
32407;SDS011;18869;55.970;37.502;2023-08-01T12:30:46;7.55;;;3.28;;
32407;SDS011;18869;55.970;37.502;2023-08-01T12:33:13;4.85;;;3.08;;
32407;SDS011;18869;55.970;37.502;2023-08-01T12:35:41;5.37;;;2.72;;
32407;SDS011;18869;55.970;37.502;2023-08-01T12:38:09;5.62;;;3.10;;
32407;SDS011;18869;55.970;37.502;2023-08-01T12:40:38;7.57;;;3.12;;
32407;SDS011;18869;55.970;37.502;2023-08-01T12:43:08;4.35;;;3.33;;
32407;SDS011;18869;55.970;37.502;2023-08-01T12:45:35;6.95;;;4.10;;
32407;SDS011;18869;55.970;37.502;2023-08-01T12:48:02;5.85;;;4.22;;
32407;SDS011;18869;55.970;37.502;2023-08-01T12:50:30;4.00;;;3.60;;
32407;SDS011;18869;55.970;37.502;2023-08-01T12:53:05;3.85;;;3.33;;
32407;SDS011;18869;55.970;37.502;2023-08-01T12:55:37;3.85;;;3.37;;
32407;SDS011;18869;55.970;37.502;2023-08-01T12:58:04;8.32;;;3.42;;
32407;SDS011;18869;55.970;37.502;2023-08-01T13:00:31;5.87;;;3.62;;
32407;SDS011;18869;55.970;37.502;2023-08-01T13:02:59;4.75;;;4.18;;
32407;SDS011;18869;55.970;37.502;2023-08-01T13:05:26;6.87;;;4.07;;
32407;SDS011;18869;55.970;37.502;2023-08-01T13:07:53;4.53;;;3.58;;
32407;SDS011;18869;55.970;37.502;2023-08-01T13:10:21;7.85;;;3.60;;
32407;SDS011;18869;55.970;37.502;2023-08-01T13:12:48;6.30;;;3.45;;
32407;SDS011;18869;55.970;37.502;2023-08-01T13:15:16;7.28;;;3.30;;
32407;SDS011;18869;55.970;37.502;2023-08-01T13:17:44;4.43;;;3.30;;
32407;SDS011;18869;55.970;37.502;2023-08-01T13:20:11;4.85;;;3.20;;
32407;SDS011;18869;55.970;37.502;2023-08-01T13:22:38;4.80;;;2.97;;
32407;SDS011;18869;55.970;37.502;2023-08-01T13:25:06;7.22;;;3.30;;
32407;SDS011;18869;55.970;37.502;2023-08-01T13:27:34;3.90;;;3.33;;
32407;SDS011;18869;55.970;37.502;2023-08-01T13:30:02;3.47;;;3.08;;
32407;SDS011;18869;55.970;37.502;2023-08-01T13:32:31;6.20;;;4.18;;
32407;SDS011;18869;55.970;37.502;2023-08-01T13:34:58;6.50;;;4.00;;
32407;SDS011;18869;55.970;37.502;2023-08-01T13:37:25;5.55;;;3.40;;
32407;SDS011;18869;55.970;37.502;2023-08-01T13:39:54;4.45;;;3.10;;
32407;SDS011;18869;55.970;37.502;2023-08-01T13:42:21;6.85;;;3.10;;
32407;SDS011;18869;55.970;37.502;2023-08-01T13:44:49;5.68;;;3.30;;
32407;SDS011;18869;55.970;37.502;2023-08-01T13:47:16;6.10;;;3.20;;
32407;SDS011;18869;55.970;37.502;2023-08-01T13:49:43;6.15;;;4.03;;
32407;SDS011;18869;55.970;37.502;2023-08-01T13:52:10;3.72;;;3.10;;
32407;SDS011;18869;55.970;37.502;2023-08-01T13:54:38;4.85;;;3.03;;
32407;SDS011;18869;55.970;37.502;2023-08-01T13:57:05;3.78;;;3.35;;
32407;SDS011;18869;55.970;37.502;2023-08-01T13:59:33;4.55;;;2.90;;
32407;SDS011;18869;55.970;37.502;2023-08-01T14:02:01;9.55;;;3.25;;
32407;SDS011;18869;55.970;37.502;2023-08-01T14:04:29;3.83;;;3.05;;
32407;SDS011;18869;55.970;37.502;2023-08-01T14:06:56;6.12;;;3.30;;
32407;SDS011;18869;55.970;37.502;2023-08-01T14:09:24;5.93;;;3.22;;
32407;SDS011;18869;55.970;37.502;2023-08-01T14:11:51;3.67;;;3.12;;
32407;SDS011;18869;55.970;37.502;2023-08-01T14:14:18;5.20;;;3.20;;
32407;SDS011;18869;55.970;37.502;2023-08-01T14:16:45;4.93;;;3.30;;
32407;SDS011;18869;55.970;37.502;2023-08-01T14:19:14;5.37;;;3.05;;
32407;SDS011;18869;55.970;37.502;2023-08-01T14:21:41;7.28;;;3.20;;
32407;SDS011;18869;55.970;37.502;2023-08-01T14:24:08;7.03;;;3.60;;
32407;SDS011;18869;55.970;37.502;2023-08-01T14:26:36;3.75;;;3.30;;
32407;SDS011;18869;55.970;37.502;2023-08-01T14:29:05;8.65;;;3.20;;
32407;SDS011;18869;55.970;37.502;2023-08-01T14:31:32;5.43;;;3.47;;
32407;SDS011;18869;55.970;37.502;2023-08-01T14:33:59;9.57;;;3.40;;
32407;SDS011;18869;55.970;37.502;2023-08-01T14:36:27;4.40;;;3.45;;
32407;SDS011;18869;55.970;37.502;2023-08-01T14:38:54;5.87;;;3.00;;